createdAt,value
2023-03-21T00:00:45.428Z,96.00
2023-03-21T00:03:13.481Z,95.90
2023-03-21T00:05:43.462Z,95.80
2023-03-21T00:08:11.589Z,95.80
2023-03-21T00:10:42.292Z,95.80
2023-03-21T00:13:13.264Z,95.80
2023-03-21T00:16:03.465Z,95.70
2023-03-21T00:18:32.473Z,95.80
2023-03-21T00:21:35.588Z,95.80
2023-03-21T00:23:51.290Z,95.80
2023-03-21T00:26:19.319Z,95.80
2023-03-21T00:28:47.270Z,95.80
2023-03-21T00:31:15.458Z,95.70
2023-03-21T00:33:43.435Z,95.60
2023-03-21T00:36:14.128Z,95.80
2023-03-21T00:38:42.645Z,96.00
2023-03-21T00:41:35.080Z,96.10
2023-03-21T00:44:00.985Z,96.50
2023-03-21T00:46:39.825Z,96.10
2023-03-21T00:49:10.644Z,96.00
2023-03-21T00:51:39.983Z,95.80
2023-03-21T00:54:07.982Z,96.00
2023-03-21T00:56:35.980Z,96.00
2023-03-21T00:59:03.951Z,96.30
2023-03-21T01:01:34.618Z,95.80
2023-03-21T01:04:05.627Z,95.80
2023-03-21T01:06:34.213Z,95.80
2023-03-21T01:09:03.738Z,95.80
2023-03-21T01:11:31.758Z,95.80
2023-03-21T01:14:14.697Z,95.10
2023-03-21T01:16:48.143Z,94.90
2023-03-21T01:19:25.384Z,95.10
2023-03-21T01:21:55.945Z,95.40
2023-03-21T01:24:25.813Z,95.60
2023-03-21T01:26:53.950Z,95.00
2023-03-21T01:29:21.982Z,94.80
2023-03-21T01:31:49.992Z,94.80
2023-03-21T01:34:20.445Z,95.00
2023-03-21T01:36:48.481Z,94.80
2023-03-21T01:39:16.663Z,94.60
2023-03-21T01:41:46.002Z,94.30
2023-03-21T01:44:17.500Z,94.60
2023-03-21T01:47:00.150Z,94.70
2023-03-21T01:49:38.816Z,95.10
2023-03-21T01:52:18.952Z,95.10
2023-03-21T01:54:54.696Z,95.00
2023-03-21T01:57:40.989Z,95.40
2023-03-21T02:00:12.992Z,96.10
2023-03-21T02:02:58.129Z,95.80
2023-03-21T02:05:36.486Z,96.10
2023-03-21T02:08:04.729Z,96.10
2023-03-21T02:10:34.111Z,96.20
2023-03-21T02:13:10.309Z,96.10
2023-03-21T02:15:39.931Z,96.10
2023-03-21T02:18:13.243Z,95.40
2023-03-21T02:21:05.673Z,95.40
2023-03-21T02:24:00.917Z,95.50
2023-03-21T02:27:03.651Z,95.10
2023-03-21T02:30:08.766Z,94.60
2023-03-21T02:32:51.316Z,94.00
2023-03-21T02:35:52.361Z,93.80
2023-03-21T02:38:30.338Z,93.50
2023-03-21T02:41:13.163Z,93.30
2023-03-21T02:43:53.062Z,93.20
2023-03-21T02:46:33.480Z,92.90
2023-03-21T02:49:14.229Z,92.90
2023-03-21T02:51:45.089Z,93.20
2023-03-21T02:54:30.262Z,93.00
2023-03-21T02:57:05.549Z,92.90
2023-03-21T02:59:39.411Z,92.80
2023-03-21T03:02:10.170Z,92.60
2023-03-21T03:04:38.394Z,92.90
2023-03-21T03:07:22.622Z,93.10
2023-03-21T03:10:03.887Z,93.10
2023-03-21T03:12:42.668Z,93.00
2023-03-21T03:15:19.145Z,93.00
2023-03-21T03:17:53.462Z,92.90
2023-03-21T03:20:36.736Z,93.00
2023-03-21T03:23:13.951Z,93.00
2023-03-21T03:25:49.178Z,93.00
2023-03-21T03:28:22.738Z,93.20
2023-03-21T03:31:07.388Z,93.50
2023-03-21T03:33:39.682Z,93.80
2023-03-21T03:36:21.375Z,94.10
2023-03-21T03:38:53.418Z,94.30
2023-03-21T03:41:25.994Z,94.70
2023-03-21T03:43:56.898Z,94.50
2023-03-21T03:46:29.501Z,95.00
2023-03-21T03:49:02.925Z,94.70
2023-03-21T03:51:35.290Z,94.40
2023-03-21T03:54:07.235Z,94.00
2023-03-21T03:56:37.496Z,93.90
2023-03-21T03:59:07.406Z,94.00
2023-03-21T04:01:36.272Z,94.30
2023-03-21T04:04:12.957Z,94.60
2023-03-21T04:06:41.480Z,94.80
2023-03-21T04:09:20.458Z,94.40
2023-03-21T04:11:52.810Z,94.40
2023-03-21T04:14:20.804Z,94.70
2023-03-21T04:16:49.236Z,94.70
2023-03-21T04:19:18.361Z,94.80
2023-03-21T04:21:47.563Z,94.80
2023-03-21T04:24:15.773Z,94.90
2023-03-21T04:26:43.811Z,95.10
2023-03-21T04:29:13.121Z,95.10
2023-03-21T04:31:41.594Z,95.10
2023-03-21T04:34:12.530Z,95.30
2023-03-21T04:36:44.103Z,95.30
2023-03-21T04:39:14.187Z,95.20
2023-03-21T04:41:43.024Z,94.90
2023-03-21T04:44:13.642Z,94.60
2023-03-21T04:46:41.778Z,94.50
2023-03-21T04:49:10.094Z,94.50
2023-03-21T04:51:38.933Z,94.80
2023-03-21T04:56:36.391Z,94.70
2023-03-21T04:59:09.282Z,95.00
2023-03-21T05:01:38.744Z,94.90
2023-03-21T05:04:06.981Z,94.70
2023-03-21T05:06:35.784Z,94.50
2023-03-21T05:09:05.686Z,94.60
2023-03-21T05:11:37.817Z,94.60
2023-03-21T05:14:06.104Z,94.60
2023-03-21T05:16:34.851Z,94.50
2023-03-21T05:19:04.842Z,94.70
2023-03-21T05:21:41.674Z,94.50
2023-03-21T05:24:12.232Z,94.20
2023-03-21T05:26:40.580Z,94.40
2023-03-21T05:29:09.719Z,94.20
2023-03-21T05:31:37.997Z,94.30
2023-03-21T05:34:07.487Z,94.20
2023-03-21T05:36:36.146Z,94.30
2023-03-21T05:39:05.385Z,94.40
2023-03-21T05:41:33.463Z,94.50
2023-03-21T05:44:01.746Z,94.80
2023-03-21T05:46:29.810Z,94.60
2023-03-21T05:48:57.787Z,94.80
2023-03-21T05:51:27.196Z,94.40
2023-03-21T05:53:55.245Z,94.50
2023-03-21T05:56:23.224Z,95.10
2023-03-21T05:58:51.212Z,95.50
2023-03-21T06:01:19.314Z,95.60
2023-03-21T06:03:47.378Z,95.40
2023-03-21T06:06:15.464Z,95.70
2023-03-21T06:08:44.834Z,95.70
2023-03-21T06:11:25.275Z,95.90
2023-03-21T06:13:53.264Z,96.40
2023-03-21T06:16:21.300Z,96.60
2023-03-21T06:18:49.396Z,96.60
2023-03-21T06:21:17.419Z,96.60
2023-03-21T06:23:46.892Z,96.80
2023-03-21T06:26:15.292Z,96.80
2023-03-21T06:28:43.281Z,96.70
2023-03-21T06:31:11.383Z,96.70
2023-03-21T06:33:39.370Z,96.60
2023-03-21T06:36:08.242Z,96.30
2023-03-21T06:38:37.983Z,95.90
2023-03-21T06:41:09.051Z,95.70
2023-03-21T06:43:37.240Z,95.60
2023-03-21T06:46:05.568Z,95.30
2023-03-21T06:48:33.996Z,95.20
2023-03-21T06:51:02.025Z,95.00
2023-03-21T06:53:30.151Z,95.10
2023-03-21T06:55:58.308Z,95.30
2023-03-21T06:58:28.062Z,95.30
2023-03-21T07:00:56.178Z,95.00
2023-03-21T07:03:24.601Z,95.00
2023-03-21T07:05:52.850Z,95.00
2023-03-21T07:08:20.837Z,95.10
2023-03-21T07:10:48.844Z,94.80
2023-03-21T07:13:17.484Z,94.80
2023-03-21T07:15:46.826Z,94.90
2023-03-21T07:18:14.807Z,94.80
2023-03-21T07:20:42.772Z,94.80
2023-03-21T07:23:10.883Z,94.50
2023-03-21T07:25:39.770Z,94.30
2023-03-21T07:28:09.238Z,94.00
2023-03-21T07:30:37.898Z,94.20
2023-03-21T07:33:07.825Z,94.00
2023-03-21T07:35:37.485Z,93.70
2023-03-21T07:38:05.936Z,93.80
2023-03-21T07:40:34.180Z,93.90
2023-03-21T07:45:31.242Z,93.90
2023-03-21T07:47:59.357Z,93.80
2023-03-21T07:50:28.852Z,93.90
2023-03-21T07:52:56.874Z,94.40
2023-03-21T07:55:24.940Z,94.00
2023-03-21T07:57:53.735Z,94.00
2023-03-21T08:00:23.856Z,93.90
2023-03-21T08:02:57.192Z,93.90
2023-03-21T08:05:29.196Z,93.70
2023-03-21T08:07:57.572Z,93.80
2023-03-21T08:10:25.935Z,93.50
2023-03-21T08:12:54.317Z,93.40
2023-03-21T08:15:22.433Z,93.20
2023-03-21T08:17:50.643Z,93.20
2023-03-21T08:20:22.104Z,93.00
2023-03-21T08:22:51.920Z,92.90
2023-03-21T08:25:21.880Z,92.60
2023-03-21T08:27:50.470Z,92.30
2023-03-21T08:30:20.212Z,92.20
2023-03-21T08:32:48.245Z,92.20
2023-03-21T08:35:18.671Z,92.00
2023-03-21T08:37:46.612Z,91.90
2023-03-21T08:40:17.817Z,91.80
2023-03-21T08:42:47.202Z,92.00
2023-03-21T08:45:16.954Z,91.60
2023-03-21T08:47:45.025Z,91.50
2023-03-21T08:50:15.768Z,91.10
2023-03-21T08:52:44.179Z,90.90
2023-03-21T08:55:13.117Z,90.90
2023-03-21T08:57:42.801Z,90.70
2023-03-21T09:00:14.819Z,90.50
2023-03-21T09:02:43.293Z,90.40
2023-03-21T09:05:12.677Z,90.10
2023-03-21T09:07:41.719Z,90.10
2023-03-21T09:10:21.816Z,89.80
2023-03-21T09:12:53.631Z,89.50
2023-03-21T09:15:24.221Z,89.20
2023-03-21T09:17:54.394Z,88.90
2023-03-21T09:20:31.237Z,89.20
2023-03-21T09:23:01.829Z,89.00
2023-03-21T09:25:31.301Z,88.90
2023-03-21T09:28:02.212Z,88.60
2023-03-21T09:30:31.555Z,88.70
2023-03-21T09:33:00.673Z,88.80
2023-03-21T09:35:29.588Z,88.70
2023-03-21T09:37:59.118Z,88.50
2023-03-21T09:40:46.332Z,88.50
2023-03-21T09:43:30.760Z,88.00
2023-03-21T09:46:02.934Z,88.30
2023-03-21T09:48:39.644Z,88.10
2023-03-21T09:51:18.029Z,88.20
2023-03-21T09:53:50.173Z,87.20
2023-03-21T09:56:19.169Z,87.20
2023-03-21T09:58:53.212Z,86.90
2023-03-21T10:01:28.279Z,86.00
2023-03-21T10:03:57.076Z,85.90
2023-03-21T10:06:28.908Z,86.10
2023-03-21T10:09:00.217Z,86.10
2023-03-21T10:11:32.373Z,85.90
2023-03-21T10:14:06.174Z,85.40
2023-03-21T10:16:37.589Z,85.20
2023-03-21T10:19:12.267Z,85.20
2023-03-21T10:21:59.792Z,85.70
2023-03-21T10:24:30.575Z,85.50
2023-03-21T10:26:58.981Z,86.10
2023-03-21T10:29:33.459Z,86.10
2023-03-21T10:32:01.902Z,86.80
2023-03-21T10:34:34.272Z,86.60
2023-03-21T10:37:03.573Z,86.00
2023-03-21T10:39:36.686Z,85.80
2023-03-21T10:42:05.489Z,86.10
2023-03-21T10:44:36.644Z,85.50
2023-03-21T10:47:07.177Z,86.00
2023-03-21T10:49:56.578Z,86.10
2023-03-21T10:52:29.910Z,86.50
2023-03-21T10:55:17.817Z,86.60
2023-03-21T10:57:47.315Z,87.00
2023-03-21T11:00:22.983Z,87.10
2023-03-21T11:02:53.032Z,85.90
2023-03-21T11:05:24.152Z,85.70
2023-03-21T11:08:00.528Z,85.20
2023-03-21T11:10:31.396Z,84.00
2023-03-21T11:13:03.118Z,83.40
2023-03-21T11:15:34.394Z,81.80
2023-03-21T11:18:15.546Z,81.70
2023-03-21T11:20:49.885Z,79.90
2023-03-21T11:23:20.658Z,79.90
2023-03-21T11:25:50.580Z,79.10
2023-03-21T11:28:22.429Z,76.80
2023-03-21T11:30:54.259Z,76.00
2023-03-21T11:33:24.316Z,74.70
2023-03-21T11:36:03.456Z,74.70
2023-03-21T11:38:34.222Z,76.10
2023-03-21T11:41:03.748Z,76.10
2023-03-21T11:43:35.771Z,76.00
2023-03-21T11:46:09.900Z,75.30
2023-03-21T11:48:42.027Z,75.80
2023-03-21T11:51:20.388Z,75.00
2023-03-21T11:53:55.019Z,74.80
2023-03-21T11:56:29.047Z,75.50
2023-03-21T11:59:20.173Z,76.10
2023-03-21T12:02:03.373Z,76.10
2023-03-21T12:04:42.350Z,76.60
2023-03-21T12:07:22.118Z,76.50
2023-03-21T12:09:58.511Z,76.70
2023-03-21T12:12:39.986Z,76.80
2023-03-21T12:15:18.638Z,76.60
2023-03-21T12:17:57.419Z,76.20
2023-03-21T12:20:38.575Z,75.30
2023-03-21T12:23:27.016Z,75.00
2023-03-21T12:26:04.530Z,74.70
2023-03-21T12:28:42.367Z,74.00
2023-03-21T12:31:20.258Z,73.50
2023-03-21T12:34:09.359Z,73.30
2023-03-21T12:36:52.792Z,72.90
2023-03-21T12:39:30.179Z,71.90
2023-03-21T12:42:10.718Z,71.50
2023-03-21T12:44:41.981Z,71.50
2023-03-21T12:47:14.618Z,71.10
2023-03-21T12:49:48.513Z,71.20
2023-03-21T12:52:20.459Z,70.40
2023-03-21T12:54:52.036Z,69.10
2023-03-21T12:57:23.697Z,69.00
2023-03-21T13:00:00.167Z,69.20
2023-03-21T13:02:32.723Z,70.30
2023-03-21T13:05:08.360Z,71.90
2023-03-21T13:07:40.038Z,72.50
2023-03-21T13:10:15.433Z,72.80
2023-03-21T13:12:52.149Z,73.40
2023-03-21T13:15:39.057Z,72.90
2023-03-21T13:18:17.214Z,72.70
2023-03-21T13:20:50.054Z,72.70
2023-03-21T13:23:19.578Z,72.30
2023-03-21T13:25:49.440Z,72.00
2023-03-21T13:28:23.228Z,72.00
2023-03-21T13:30:52.223Z,71.90
2023-03-21T13:33:25.984Z,72.10
2023-03-21T13:36:05.475Z,71.50
2023-03-21T13:38:35.188Z,70.80
2023-03-21T13:41:08.716Z,69.20
2023-03-21T13:43:44.369Z,69.10
2023-03-21T13:46:14.583Z,69.00
2023-03-21T13:48:57.806Z,68.00
2023-03-21T13:51:52.991Z,67.30
2023-03-21T13:54:25.470Z,66.30
2023-03-21T13:56:58.753Z,65.90
2023-03-21T13:59:40.464Z,65.50
2023-03-21T14:02:29.031Z,65.90
2023-03-21T14:05:06.087Z,66.50
2023-03-21T14:07:41.028Z,66.70
2023-03-21T14:10:19.843Z,67.30
2023-03-21T14:12:48.563Z,67.90
2023-03-21T14:15:20.907Z,68.40
2023-03-21T14:17:55.363Z,69.20
2023-03-21T14:20:26.400Z,69.20
2023-03-21T14:22:56.231Z,69.70
2023-03-21T14:25:31.317Z,70.20
2023-03-21T14:28:02.421Z,70.70
2023-03-21T14:30:35.233Z,70.90
2023-03-21T14:33:08.197Z,71.40
2023-03-21T14:35:37.467Z,71.40
2023-03-21T14:38:08.979Z,71.00
2023-03-21T14:40:37.522Z,71.50
2023-03-21T14:43:06.913Z,71.80
2023-03-21T14:45:37.458Z,72.10
2023-03-21T14:48:07.827Z,72.20
2023-03-21T14:50:41.909Z,72.20
2023-03-21T14:53:17.573Z,72.30
2023-03-21T14:55:48.211Z,72.00
2023-03-21T14:58:19.214Z,71.80
2023-03-21T15:00:50.805Z,72.60
2023-03-21T15:03:21.141Z,72.20
2023-03-21T15:05:49.454Z,72.20
2023-03-21T15:08:20.786Z,72.20
2023-03-21T15:11:06.788Z,72.00
2023-03-21T15:13:38.417Z,72.50
2023-03-21T15:16:08.225Z,72.20
2023-03-21T15:18:39.034Z,72.00
2023-03-21T15:21:10.554Z,72.50
2023-03-21T15:23:43.117Z,72.30
2023-03-21T15:26:16.808Z,72.50
2023-03-21T15:28:47.693Z,72.00
2023-03-21T15:31:19.009Z,72.10
2023-03-21T15:33:48.577Z,72.10
2023-03-21T15:36:20.991Z,71.90
2023-03-21T15:38:51.367Z,71.90
2023-03-21T15:41:29.245Z,72.00
2023-03-21T15:44:05.862Z,72.50
2023-03-21T15:46:41.249Z,72.20
2023-03-21T15:49:10.766Z,72.10
2023-03-21T15:51:38.951Z,72.30
2023-03-21T15:54:15.147Z,72.30
2023-03-21T15:56:46.513Z,73.00
2023-03-21T15:59:19.608Z,72.20
2023-03-21T16:01:48.878Z,72.10
2023-03-21T16:04:18.913Z,72.50
2023-03-21T16:06:55.026Z,72.50
2023-03-21T16:09:24.519Z,72.30
2023-03-21T16:11:53.890Z,72.70
2023-03-21T16:14:22.464Z,72.70
2023-03-21T16:16:51.048Z,72.70
2023-03-21T16:19:19.561Z,73.50
2023-03-21T16:21:47.626Z,74.20
2023-03-21T16:24:15.695Z,75.00
2023-03-21T16:26:48.046Z,75.20
2023-03-21T16:29:16.760Z,74.80
2023-03-21T16:31:45.511Z,74.60
2023-03-21T16:34:13.530Z,74.30
2023-03-21T16:36:43.457Z,74.00
2023-03-21T16:39:19.777Z,74.80
2023-03-21T16:41:50.613Z,74.90
2023-03-21T16:44:18.896Z,74.90
2023-03-21T16:46:47.579Z,75.00
2023-03-21T16:49:26.849Z,75.40
2023-03-21T16:51:56.658Z,75.30
2023-03-21T16:54:24.757Z,75.90
2023-03-21T16:56:58.860Z,75.50
2023-03-21T16:59:26.973Z,75.70
2023-03-21T17:01:54.976Z,77.20
2023-03-21T17:04:24.365Z,78.10
2023-03-21T17:06:54.211Z,78.30
2023-03-21T17:09:23.840Z,78.20
2023-03-21T17:11:51.847Z,78.50
2023-03-21T17:14:22.238Z,79.10
2023-03-21T17:16:50.318Z,79.80
2023-03-21T17:19:20.462Z,80.10
2023-03-21T17:21:48.469Z,80.80
2023-03-21T17:24:16.853Z,81.00
2023-03-21T17:26:45.324Z,80.90
2023-03-21T17:29:14.810Z,81.00
2023-03-21T17:31:47.384Z,81.90
2023-03-21T17:34:15.456Z,82.20
2023-03-21T17:36:45.014Z,82.60
2023-03-21T17:39:17.874Z,82.60
2023-03-21T17:41:45.866Z,82.80
2023-03-21T17:44:13.851Z,82.90
2023-03-21T17:46:43.411Z,83.20
2023-03-21T17:49:13.895Z,83.20
2023-03-21T17:51:41.975Z,83.50
2023-03-21T17:54:10.153Z,83.90
2023-03-21T17:56:40.919Z,84.60
2023-03-21T17:59:12.277Z,84.80
2023-03-21T18:01:40.556Z,84.90
2023-03-21T18:04:11.075Z,84.80
2023-03-21T18:06:39.157Z,85.30
2023-03-21T18:09:11.384Z,86.50
2023-03-21T18:11:40.497Z,85.70
2023-03-21T18:14:16.328Z,85.40
2023-03-21T18:16:46.515Z,85.40
2023-03-21T18:19:16.011Z,85.50
2023-03-21T18:21:45.247Z,86.60
2023-03-21T18:24:13.888Z,86.40
2023-03-21T18:26:42.700Z,86.80
2023-03-21T18:32:06.739Z,87.00
2023-03-21T18:34:38.208Z,87.30
2023-03-21T18:37:08.061Z,87.60
2023-03-21T18:39:36.370Z,87.80
2023-03-21T18:42:04.973Z,88.00
2023-03-21T18:44:38.676Z,87.60
2023-03-21T18:47:07.556Z,87.40
2023-03-21T18:52:26.461Z,88.60
2023-03-21T18:54:54.665Z,88.90
2023-03-21T18:57:38.974Z,88.60
2023-03-21T19:00:12.926Z,88.50
2023-03-21T19:02:46.007Z,88.30
2023-03-21T19:05:18.106Z,88.50
2023-03-21T19:07:46.333Z,89.50
2023-03-21T19:10:18.457Z,90.10
2023-03-21T19:12:47.846Z,90.20
2023-03-21T19:15:17.876Z,90.20
2023-03-21T19:20:35.378Z,90.40
2023-03-21T19:23:03.506Z,90.20
2023-03-21T19:25:31.509Z,90.10
2023-03-21T19:27:59.552Z,90.20
2023-03-21T19:30:28.796Z,90.60
2023-03-21T19:32:56.909Z,90.20
2023-03-21T19:35:25.278Z,90.40
2023-03-21T19:37:54.688Z,90.50
2023-03-21T19:40:22.760Z,90.40
2023-03-21T19:42:50.847Z,90.40
2023-03-21T19:45:19.013Z,90.40
2023-03-21T19:47:47.248Z,90.50
2023-03-21T19:53:05.123Z,90.90
2023-03-21T19:55:33.766Z,90.60
2023-03-21T19:58:02.110Z,90.80
2023-03-21T20:00:30.210Z,90.90
2023-03-21T20:02:58.461Z,91.20
2023-03-21T20:05:26.657Z,91.30
2023-03-21T20:07:57.333Z,91.40
2023-03-21T20:10:27.577Z,91.40
2023-03-21T20:12:56.132Z,91.50
2023-03-21T20:15:28.396Z,91.40
2023-03-21T20:17:57.934Z,91.40
2023-03-21T20:20:26.558Z,91.50
2023-03-21T20:23:06.703Z,91.30
2023-03-21T20:25:40.067Z,91.30
2023-03-21T20:28:23.853Z,91.10
2023-03-21T20:30:54.676Z,91.10
2023-03-21T20:33:22.762Z,91.40
2023-03-21T20:38:45.679Z,91.80
2023-03-21T20:41:24.058Z,91.80
2023-03-21T20:46:43.630Z,91.90
2023-03-21T20:49:12.818Z,92.00
2023-03-21T20:54:28.841Z,91.90
2023-03-21T20:56:58.176Z,91.80
2023-03-21T20:59:28.098Z,91.90
2023-03-21T21:01:58.276Z,92.40
2023-03-21T21:04:44.850Z,92.10
2023-03-21T21:07:17.833Z,92.10
2023-03-21T21:09:47.061Z,92.20
2023-03-21T21:12:19.250Z,92.30
2023-03-21T21:14:48.060Z,92.30
2023-03-21T21:17:31.215Z,92.40
2023-03-21T21:20:12.250Z,92.50
2023-03-21T21:22:42.893Z,92.60
2023-03-21T21:25:15.929Z,92.80
2023-03-21T21:27:46.288Z,92.70
2023-03-21T21:30:16.702Z,92.40
2023-03-21T21:32:44.770Z,92.90
2023-03-21T21:35:12.832Z,92.80
2023-03-21T21:37:42.050Z,92.80
2023-03-21T21:40:13.000Z,92.70
2023-03-21T21:42:42.627Z,93.10
2023-03-21T21:45:13.884Z,93.20
2023-03-21T21:47:43.997Z,93.10
2023-03-21T21:50:12.782Z,92.80
2023-03-21T21:52:43.626Z,92.90
2023-03-21T21:55:13.240Z,93.00
2023-03-21T21:57:41.325Z,93.10
2023-03-21T22:00:13.131Z,93.10
2023-03-21T22:02:41.446Z,93.30
2023-03-21T22:05:10.558Z,93.50
2023-03-21T22:07:39.387Z,93.20
2023-03-21T22:10:08.298Z,93.20
2023-03-21T22:12:36.277Z,93.20
2023-03-21T22:15:04.932Z,93.40
2023-03-21T22:17:34.952Z,93.50
2023-03-21T22:20:06.386Z,93.50
2023-03-21T22:22:34.949Z,93.20
2023-03-21T22:25:02.919Z,93.00
2023-03-21T22:27:31.689Z,93.40
2023-03-21T22:30:04.459Z,93.80
2023-03-21T22:32:34.217Z,93.90
2023-03-21T22:35:02.886Z,93.70
2023-03-21T22:37:31.572Z,93.50
2023-03-21T22:39:59.593Z,93.20
2023-03-21T22:42:28.487Z,93.10
2023-03-21T22:44:56.563Z,93.30
2023-03-21T22:47:24.642Z,93.60
2023-03-21T22:49:54.139Z,93.90
2023-03-21T22:52:22.214Z,94.10
2023-03-21T22:54:50.380Z,94.20
2023-03-21T22:57:20.179Z,94.20
2023-03-21T22:59:48.521Z,94.30
2023-03-21T23:02:16.704Z,94.40
2023-03-21T23:04:44.947Z,94.40
2023-03-21T23:07:14.635Z,94.50
2023-03-21T23:09:42.716Z,94.30
2023-03-21T23:12:10.696Z,94.10
2023-03-21T23:14:38.774Z,94.30
2023-03-21T23:17:06.704Z,94.50
2023-03-21T23:19:34.703Z,94.60
2023-03-21T23:22:02.728Z,94.70
2023-03-21T23:24:32.052Z,94.70
2023-03-21T23:27:00.124Z,94.80
2023-03-21T23:29:28.156Z,94.90
2023-03-21T23:31:56.452Z,94.90
2023-03-21T23:34:24.547Z,95.00
2023-03-21T23:36:52.573Z,95.10
2023-03-21T23:39:20.560Z,95.40
2023-03-21T23:41:49.901Z,95.40
2023-03-21T23:44:18.047Z,95.20
2023-03-21T23:46:46.056Z,95.20
2023-03-21T23:49:15.180Z,95.30
2023-03-21T23:51:43.173Z,95.50
2023-03-21T23:54:11.275Z,95.70
2023-03-21T23:56:39.739Z,95.50
2023-03-21T23:59:09.212Z,95.00
